createdAt,value
2022-08-26T00:00:54.506Z,19.42
2022-08-26T00:03:27.151Z,14.90
2022-08-26T00:05:57.833Z,16.75
2022-08-26T00:08:27.732Z,17.25
2022-08-26T00:10:57.538Z,18.23
2022-08-26T00:13:29.930Z,17.85
2022-08-26T00:15:59.829Z,12.85
2022-08-26T00:18:38.717Z,17.60
2022-08-26T00:21:12.040Z,14.48
2022-08-26T00:23:41.863Z,13.98
2022-08-26T00:26:11.810Z,19.42
2022-08-26T00:28:42.553Z,16.58
2022-08-26T00:31:12.776Z,17.38
2022-08-26T00:33:45.722Z,15.02
2022-08-26T00:36:20.083Z,16.60
2022-08-26T00:38:51.047Z,17.38
2022-08-26T00:41:22.633Z,19.45
2022-08-26T00:43:54.073Z,18.40
2022-08-26T00:46:28.898Z,15.52
2022-08-26T00:49:12.245Z,16.10
2022-08-26T00:51:49.009Z,16.90
2022-08-26T00:54:20.007Z,16.25
2022-08-26T00:56:55.494Z,26.30
2022-08-26T00:59:26.703Z,25.40
2022-08-26T01:01:59.359Z,17.10
2022-08-26T01:04:34.232Z,17.02
2022-08-26T01:07:05.486Z,15.77
2022-08-26T01:09:36.129Z,21.17
2022-08-26T01:12:07.577Z,19.95
2022-08-26T01:14:40.263Z,20.63
2022-08-26T01:17:11.420Z,23.08
2022-08-26T01:19:46.935Z,18.00
2022-08-26T01:22:20.206Z,22.00
2022-08-26T01:24:54.063Z,20.15
2022-08-26T01:27:24.859Z,18.35
2022-08-26T01:29:55.117Z,17.80
2022-08-26T01:32:26.066Z,16.25
2022-08-26T01:34:56.161Z,20.00
2022-08-26T01:37:32.623Z,19.95
2022-08-26T01:40:08.051Z,18.25
2022-08-26T01:42:38.352Z,19.80
2022-08-26T01:45:12.949Z,18.95
2022-08-26T01:47:44.548Z,21.00
2022-08-26T01:50:27.880Z,17.13
2022-08-26T01:53:01.811Z,16.95
2022-08-26T01:55:35.440Z,23.40
2022-08-26T01:58:09.820Z,13.65
2022-08-26T02:00:40.941Z,20.77
2022-08-26T02:03:22.267Z,23.85
2022-08-26T02:05:55.794Z,17.92
2022-08-26T02:08:32.143Z,22.00
2022-08-26T02:11:05.832Z,18.30
2022-08-26T02:13:40.888Z,16.73
2022-08-26T02:16:11.970Z,16.00
2022-08-26T02:18:44.844Z,16.70
2022-08-26T02:21:16.920Z,18.05
2022-08-26T02:23:47.612Z,18.33
2022-08-26T02:26:23.106Z,21.17
2022-08-26T02:29:04.563Z,15.73
2022-08-26T02:31:34.575Z,24.38
2022-08-26T02:34:11.333Z,23.70
2022-08-26T02:36:41.967Z,17.30
2022-08-26T02:39:15.047Z,18.25
2022-08-26T02:41:52.269Z,20.15
2022-08-26T02:44:22.415Z,22.45
2022-08-26T02:46:52.858Z,22.77
2022-08-26T02:49:24.578Z,21.35
2022-08-26T02:51:55.092Z,21.92
2022-08-26T02:54:25.394Z,23.05
2022-08-26T02:56:58.292Z,21.52
2022-08-26T02:59:29.298Z,20.88
2022-08-26T03:02:00.560Z,23.60
2022-08-26T03:04:31.193Z,20.65
2022-08-26T03:07:03.437Z,24.90
2022-08-26T03:09:33.312Z,16.98
2022-08-26T03:12:06.500Z,18.52
2022-08-26T03:14:37.514Z,22.48
2022-08-26T03:17:07.902Z,21.38
2022-08-26T03:19:39.980Z,23.15
2022-08-26T03:22:11.068Z,101.45
2022-08-26T03:24:40.891Z,34.40
2022-08-26T03:27:18.738Z,21.33
2022-08-26T03:30:01.034Z,19.77
2022-08-26T03:32:31.143Z,23.98
2022-08-26T03:35:00.968Z,23.60
2022-08-26T03:37:30.824Z,16.55
2022-08-26T03:40:01.182Z,18.73
2022-08-26T03:42:33.692Z,24.25
2022-08-26T03:45:03.733Z,26.15
2022-08-26T03:47:33.817Z,22.48
2022-08-26T03:50:04.844Z,28.48
2022-08-26T03:52:34.715Z,24.63
2022-08-26T03:55:04.611Z,26.23
2022-08-26T03:57:37.304Z,20.23
2022-08-26T04:00:12.032Z,26.92
2022-08-26T04:02:42.854Z,74.68
2022-08-26T04:05:13.691Z,34.38
2022-08-26T04:07:43.735Z,27.63
2022-08-26T04:10:14.546Z,24.55
2022-08-26T04:12:47.817Z,26.65
2022-08-26T04:15:18.981Z,24.58
2022-08-26T04:17:48.881Z,21.80
2022-08-26T04:20:18.739Z,21.20
2022-08-26T04:22:49.239Z,25.33
2022-08-26T04:25:20.662Z,17.23
2022-08-26T04:27:53.104Z,23.13
2022-08-26T04:30:23.190Z,17.50
2022-08-26T04:32:53.921Z,24.48
2022-08-26T04:35:25.999Z,18.92
2022-08-26T04:37:56.998Z,18.17
2022-08-26T04:40:27.770Z,21.30
2022-08-26T04:43:00.276Z,26.27
2022-08-26T04:45:30.145Z,22.58
2022-08-26T04:48:00.110Z,23.77
2022-08-26T04:50:30.000Z,24.45
2022-08-26T04:53:00.317Z,23.08
2022-08-26T04:55:39.657Z,37.65
2022-08-26T04:58:17.462Z,19.05
2022-08-26T05:00:48.033Z,25.58
2022-08-26T05:03:18.917Z,26.38
2022-08-26T05:05:51.045Z,22.38
2022-08-26T05:08:23.124Z,28.63
2022-08-26T05:10:56.480Z,31.25
2022-08-26T05:13:30.400Z,25.33
2022-08-26T05:16:01.247Z,24.70
2022-08-26T05:18:31.393Z,22.25
2022-08-26T05:21:01.209Z,25.73
2022-08-26T05:23:32.062Z,21.83
2022-08-26T05:26:02.769Z,23.98
2022-08-26T05:28:38.336Z,27.45
2022-08-26T05:31:17.758Z,25.95
2022-08-26T05:33:48.498Z,27.00
2022-08-26T05:36:22.074Z,25.30
2022-08-26T05:38:52.433Z,20.38
2022-08-26T05:41:25.019Z,26.48
2022-08-26T05:43:59.065Z,20.88
2022-08-26T05:46:29.865Z,26.38
2022-08-26T05:49:00.725Z,26.45
2022-08-26T05:51:30.969Z,28.70
2022-08-26T05:54:01.823Z,23.70
2022-08-26T05:56:33.610Z,30.23
2022-08-26T05:59:10.899Z,20.20
2022-08-26T06:01:45.863Z,24.25
2022-08-26T06:04:17.237Z,23.92
2022-08-26T06:06:50.292Z,23.88
2022-08-26T06:09:20.472Z,31.60
2022-08-26T06:11:51.410Z,30.15
2022-08-26T06:14:23.891Z,27.02
2022-08-26T06:16:53.813Z,29.38
2022-08-26T06:19:23.989Z,33.40
2022-08-26T06:21:55.084Z,26.92
2022-08-26T06:24:37.591Z,26.15
2022-08-26T06:27:11.380Z,28.40
2022-08-26T06:29:44.197Z,29.58
2022-08-26T06:32:14.342Z,37.25
2022-08-26T06:34:44.726Z,30.13
2022-08-26T06:37:14.581Z,30.58
2022-08-26T06:39:45.783Z,32.47
2022-08-26T06:42:15.620Z,24.35
2022-08-26T06:44:48.033Z,29.85
2022-08-26T06:47:17.855Z,32.13
2022-08-26T06:49:47.751Z,24.75
2022-08-26T06:52:22.516Z,22.83
2022-08-26T06:54:54.373Z,23.77
2022-08-26T06:57:24.219Z,21.33
2022-08-26T06:59:56.805Z,23.17
2022-08-26T07:02:28.484Z,33.15
2022-08-26T07:04:58.767Z,29.85
2022-08-26T07:07:29.103Z,23.98
2022-08-26T07:09:59.832Z,24.23
2022-08-26T07:12:29.972Z,29.13
2022-08-26T07:15:02.483Z,17.13
2022-08-26T07:17:32.690Z,22.50
2022-08-26T07:20:06.299Z,30.48
2022-08-26T07:22:37.146Z,27.92
2022-08-26T07:25:08.202Z,21.88
2022-08-26T07:27:39.634Z,23.15
2022-08-26T07:30:14.796Z,29.25
2022-08-26T07:32:44.875Z,23.20
2022-08-26T07:35:14.644Z,23.63
2022-08-26T07:37:45.653Z,25.25
2022-08-26T07:40:15.551Z,27.48
2022-08-26T07:42:46.398Z,25.52
2022-08-26T07:45:18.961Z,35.65
2022-08-26T07:47:48.784Z,23.55
2022-08-26T07:50:18.648Z,23.67
2022-08-26T07:52:48.548Z,17.38
2022-08-26T07:55:19.523Z,22.35
2022-08-26T07:57:51.111Z,23.88
2022-08-26T08:00:27.973Z,27.73
2022-08-26T08:02:57.968Z,33.10
2022-08-26T08:05:33.726Z,24.67
2022-08-26T08:08:27.415Z,27.65
2022-08-26T08:10:57.008Z,21.45
2022-08-26T08:13:27.473Z,21.70
2022-08-26T08:16:00.714Z,24.20
2022-08-26T08:18:31.241Z,18.13
2022-08-26T08:21:21.103Z,20.60
2022-08-26T08:23:52.679Z,20.23
2022-08-26T08:26:23.138Z,21.35
2022-08-26T08:28:53.886Z,26.25
2022-08-26T08:31:52.499Z,16.38
2022-08-26T08:34:19.614Z,26.60
2022-08-26T08:36:53.314Z,22.85
2022-08-26T08:39:23.858Z,24.80
2022-08-26T08:42:24.627Z,19.80
2022-08-26T08:44:58.316Z,21.02
2022-08-26T08:47:36.627Z,19.35
2022-08-26T08:50:14.343Z,21.65
2022-08-26T08:52:48.645Z,23.45
2022-08-26T08:55:19.306Z,26.02
2022-08-26T08:58:02.809Z,20.92
2022-08-26T09:00:52.486Z,24.30
2022-08-26T09:03:38.581Z,18.48
2022-08-26T09:06:17.504Z,23.95
2022-08-26T09:08:50.615Z,27.02
2022-08-26T09:11:22.422Z,24.23
2022-08-26T09:13:55.231Z,22.50
2022-08-26T09:16:31.305Z,20.10
2022-08-26T09:19:19.016Z,25.95
2022-08-26T09:21:57.142Z,24.88
2022-08-26T09:24:28.415Z,21.50
2022-08-26T09:26:59.278Z,24.73
2022-08-26T09:29:30.913Z,25.58
2022-08-26T09:32:20.571Z,26.23
2022-08-26T09:35:02.900Z,26.45
2022-08-26T09:37:39.911Z,26.48
2022-08-26T09:40:30.561Z,18.55
2022-08-26T09:43:22.412Z,26.08
2022-08-26T09:45:59.322Z,21.52
2022-08-26T09:48:35.528Z,27.40
2022-08-26T09:51:26.870Z,23.40
2022-08-26T09:53:59.338Z,28.00
2022-08-26T09:56:32.186Z,30.15
2022-08-26T09:59:03.888Z,26.90
2022-08-26T10:01:40.391Z,29.55
2022-08-26T10:04:14.708Z,30.35
2022-08-26T10:06:59.186Z,31.85
2022-08-26T10:09:30.052Z,25.77
2022-08-26T10:12:04.593Z,20.38
2022-08-26T10:14:39.938Z,28.40
2022-08-26T10:17:17.173Z,29.67
2022-08-26T10:19:57.237Z,22.42
2022-08-26T10:22:38.176Z,21.50
2022-08-26T10:25:12.687Z,21.02
2022-08-26T10:27:52.737Z,25.50
2022-08-26T10:30:25.176Z,28.58
2022-08-26T10:32:59.421Z,19.67
2022-08-26T10:35:30.523Z,29.15
2022-08-26T10:38:07.349Z,24.63
2022-08-26T10:40:49.089Z,22.88
2022-08-26T10:43:25.544Z,26.55
2022-08-26T10:45:57.436Z,26.55
2022-08-26T10:48:35.775Z,25.45
2022-08-26T10:51:08.595Z,31.63
2022-08-26T10:53:51.430Z,31.00
2022-08-26T10:56:43.030Z,29.08
2022-08-26T10:59:23.014Z,32.95
2022-08-26T11:01:59.165Z,27.10
2022-08-26T11:04:53.465Z,26.60
2022-08-26T11:07:42.645Z,24.70
2022-08-26T11:11:06.075Z,26.05
2022-08-26T11:14:04.642Z,27.23
2022-08-26T11:16:36.589Z,30.42
2022-08-26T11:19:15.329Z,30.67
2022-08-26T11:21:51.020Z,27.05
2022-08-26T11:24:42.687Z,27.98
2022-08-26T11:28:08.434Z,26.50
2022-08-26T11:30:58.077Z,21.23
2022-08-26T11:34:02.065Z,27.02
2022-08-26T11:37:00.948Z,25.65
2022-08-26T11:39:36.730Z,26.40
2022-08-26T11:42:22.734Z,35.60
2022-08-26T11:44:53.286Z,31.70
2022-08-26T11:47:32.506Z,34.15
2022-08-26T11:50:20.440Z,22.98
2022-08-26T11:53:02.348Z,32.75
2022-08-26T11:55:34.886Z,30.40
2022-08-26T11:58:07.739Z,27.45
2022-08-26T12:00:53.018Z,24.30
2022-08-26T12:03:29.251Z,30.20
2022-08-26T12:05:59.258Z,22.48
2022-08-26T12:08:32.203Z,26.67
2022-08-26T12:11:08.689Z,34.15
2022-08-26T12:13:39.798Z,23.42
2022-08-26T12:16:10.194Z,33.30
2022-08-26T12:18:44.874Z,33.10
2022-08-26T12:21:17.471Z,31.92
2022-08-26T12:23:50.165Z,21.05
2022-08-26T12:26:27.251Z,33.38
2022-08-26T12:29:00.947Z,15.98
2022-08-26T12:31:33.994Z,11.18
2022-08-26T12:34:13.098Z,11.13
2022-08-26T12:36:50.393Z,12.48
2022-08-26T12:39:29.426Z,6.90
2022-08-26T12:42:00.979Z,8.45
2022-08-26T12:44:53.106Z,7.15
2022-08-26T12:47:35.216Z,10.07
2022-08-26T12:50:23.699Z,7.60
2022-08-26T12:53:01.146Z,7.30
2022-08-26T12:55:40.838Z,8.15
2022-08-26T12:58:26.281Z,10.38
2022-08-26T13:00:57.994Z,10.25
2022-08-26T13:03:46.126Z,8.75
2022-08-26T13:06:31.236Z,21.52
2022-08-26T13:09:05.000Z,14.25
2022-08-26T13:11:36.841Z,16.33
2022-08-26T13:14:09.755Z,15.05
2022-08-26T13:16:42.014Z,12.93
2022-08-26T13:19:14.389Z,10.75
2022-08-26T13:21:49.705Z,11.50
2022-08-26T13:24:23.413Z,12.70
2022-08-26T13:26:53.419Z,12.82
2022-08-26T13:29:23.409Z,12.80
2022-08-26T13:31:54.764Z,16.02
2022-08-26T13:34:26.665Z,8.93
2022-08-26T13:36:59.939Z,14.55
2022-08-26T13:39:30.446Z,14.02
2022-08-26T13:42:00.525Z,7.43
2022-08-26T13:44:30.477Z,12.27
2022-08-26T13:47:00.310Z,11.15
2022-08-26T13:49:30.363Z,7.88
2022-08-26T13:52:03.813Z,9.93
2022-08-26T13:54:33.692Z,8.68
2022-08-26T13:57:03.518Z,8.82
2022-08-26T13:59:33.382Z,10.60
2022-08-26T14:02:04.005Z,8.77
2022-08-26T14:04:33.981Z,8.70
2022-08-26T14:07:06.769Z,8.60
2022-08-26T14:09:38.514Z,11.85
2022-08-26T14:12:09.023Z,11.52
2022-08-26T14:14:39.100Z,11.43
2022-08-26T14:17:09.839Z,9.82
2022-08-26T14:19:40.486Z,12.10
2022-08-26T14:22:12.972Z,8.73
2022-08-26T14:24:42.897Z,8.77
2022-08-26T14:27:12.863Z,9.82
2022-08-26T14:29:43.295Z,10.13
2022-08-26T14:32:22.023Z,7.75
2022-08-26T14:34:52.807Z,8.43
2022-08-26T14:37:25.387Z,11.35
2022-08-26T14:39:55.315Z,7.55
2022-08-26T14:42:31.447Z,7.50
2022-08-26T14:45:04.730Z,8.98
2022-08-26T14:47:34.604Z,9.88
2022-08-26T14:50:04.633Z,8.00
2022-08-26T14:52:57.104Z,9.45
2022-08-26T14:55:24.384Z,8.98
2022-08-26T14:57:54.270Z,7.63
2022-08-26T15:00:24.225Z,7.78
2022-08-26T15:02:54.229Z,10.27
2022-08-26T15:05:24.196Z,7.03
2022-08-26T15:07:56.717Z,9.85
2022-08-26T15:10:27.061Z,8.55
2022-08-26T15:12:56.953Z,8.60
2022-08-26T15:15:27.435Z,6.78
2022-08-26T15:17:58.430Z,7.53
2022-08-26T15:20:28.374Z,6.78
2022-08-26T15:23:06.079Z,7.07
2022-08-26T15:25:36.393Z,6.93
2022-08-26T15:28:09.805Z,7.28
2022-08-26T15:30:39.841Z,7.45
2022-08-26T15:33:15.031Z,7.70
2022-08-26T15:35:45.470Z,9.90
2022-08-26T15:38:18.200Z,7.93
2022-08-26T15:40:48.127Z,7.35
2022-08-26T15:43:28.829Z,8.13
2022-08-26T15:45:59.992Z,7.72
2022-08-26T15:48:30.613Z,6.85
2022-08-26T15:51:03.095Z,7.45
2022-08-26T15:53:37.699Z,11.70
2022-08-26T15:56:07.801Z,11.90
2022-08-26T15:58:38.104Z,15.10
2022-08-26T16:01:08.227Z,10.10
2022-08-26T16:03:38.348Z,8.50
2022-08-26T16:06:08.837Z,13.38
2022-08-26T16:08:42.244Z,9.07
2022-08-26T16:11:12.343Z,9.57
2022-08-26T16:13:42.379Z,7.72
2022-08-26T16:16:27.107Z,9.65
2022-08-26T16:18:57.213Z,8.38
2022-08-26T16:21:29.943Z,8.80
2022-08-26T16:24:03.449Z,11.15
2022-08-26T16:26:36.999Z,11.70
2022-08-26T16:29:10.584Z,12.27
2022-08-26T16:31:41.016Z,10.68
2022-08-26T16:34:11.657Z,11.30
2022-08-26T16:36:42.519Z,9.68
2022-08-26T16:39:15.611Z,10.77
2022-08-26T16:41:45.549Z,8.98
2022-08-26T16:44:15.487Z,10.63
2022-08-26T16:46:45.740Z,9.65
2022-08-26T16:49:15.768Z,10.65
2022-08-26T16:51:45.662Z,9.93
2022-08-26T16:54:18.187Z,11.05
2022-08-26T16:56:48.492Z,8.75
2022-08-26T16:59:18.644Z,10.05
2022-08-26T17:01:48.950Z,9.43
2022-08-26T17:04:19.810Z,10.60
2022-08-26T17:06:49.814Z,8.38
2022-08-26T17:09:22.912Z,8.68
2022-08-26T17:11:53.050Z,11.25
2022-08-26T17:14:23.052Z,10.43
2022-08-26T17:16:53.733Z,10.20
2022-08-26T17:19:24.410Z,8.90
2022-08-26T17:21:54.524Z,8.25
2022-08-26T17:24:27.207Z,10.80
2022-08-26T17:26:57.085Z,15.25
2022-08-26T17:29:26.888Z,9.88
2022-08-26T17:31:56.807Z,9.88
2022-08-26T17:34:26.761Z,11.02
2022-08-26T17:36:56.731Z,11.30
2022-08-26T17:39:29.216Z,10.95
2022-08-26T17:41:59.163Z,10.32
2022-08-26T17:44:29.620Z,8.40
2022-08-26T17:46:59.491Z,8.82
2022-08-26T17:49:29.551Z,11.82
2022-08-26T17:52:01.418Z,14.57
2022-08-26T17:54:33.942Z,10.10
2022-08-26T17:57:03.940Z,10.80
2022-08-26T17:59:40.984Z,13.68
2022-08-26T18:02:11.013Z,9.10
2022-08-26T18:04:40.853Z,10.95
2022-08-26T18:07:10.713Z,8.68
2022-08-26T18:09:44.455Z,8.65
2022-08-26T18:12:15.660Z,10.05
2022-08-26T18:14:45.523Z,9.82
2022-08-26T18:17:17.533Z,8.80
2022-08-26T18:19:49.404Z,11.18
2022-08-26T18:22:20.571Z,12.43
2022-08-26T18:24:58.953Z,9.15
2022-08-26T18:27:29.538Z,9.98
2022-08-26T18:30:00.095Z,8.80
2022-08-26T18:32:30.165Z,8.15
2022-08-26T18:35:00.053Z,8.40
2022-08-26T18:37:31.651Z,9.35
2022-08-26T18:40:04.791Z,9.20
2022-08-26T18:42:34.817Z,10.90
2022-08-26T18:45:05.083Z,12.57
2022-08-26T18:47:35.451Z,9.20
2022-08-26T18:50:06.150Z,12.50
2022-08-26T18:52:36.624Z,13.90
2022-08-26T18:55:10.298Z,8.65
2022-08-26T18:57:40.196Z,9.38
2022-08-26T19:00:11.896Z,10.98
2022-08-26T19:02:47.041Z,10.48
2022-08-26T19:05:22.028Z,10.45
2022-08-26T19:07:51.940Z,11.60
2022-08-26T19:10:24.864Z,9.98
2022-08-26T19:12:57.405Z,9.30
2022-08-26T19:15:30.028Z,9.88
2022-08-26T19:18:00.206Z,9.93
2022-08-26T19:20:30.026Z,9.45
2022-08-26T19:23:10.737Z,9.32
2022-08-26T19:25:55.109Z,10.23
2022-08-26T19:28:24.989Z,17.15
2022-08-26T19:30:55.182Z,11.23
2022-08-26T19:33:25.036Z,10.18
2022-08-26T19:35:55.582Z,10.60
2022-08-26T19:38:25.493Z,11.93
2022-08-26T19:41:00.253Z,10.65
2022-08-26T19:43:30.112Z,11.07
2022-08-26T19:46:02.243Z,13.13
2022-08-26T19:48:32.101Z,11.77
2022-08-26T19:51:01.959Z,11.43
2022-08-26T19:53:31.876Z,11.38
2022-08-26T19:56:04.344Z,11.50
2022-08-26T19:58:34.869Z,11.55
2022-08-26T20:01:04.846Z,11.32
2022-08-26T20:03:35.288Z,11.07
2022-08-26T20:06:05.824Z,11.85
2022-08-26T20:08:36.276Z,12.02
2022-08-26T20:11:12.882Z,11.65
2022-08-26T20:13:43.014Z,13.23
2022-08-26T20:16:13.110Z,14.45
2022-08-26T20:18:56.248Z,12.73
2022-08-26T20:21:29.493Z,14.30
2022-08-26T20:24:02.152Z,13.77
2022-08-26T20:26:37.396Z,13.18
2022-08-26T20:29:08.037Z,12.40
2022-08-26T20:31:38.749Z,12.30
2022-08-26T20:34:09.624Z,15.00
2022-08-26T20:36:42.231Z,15.55
2022-08-26T20:39:13.376Z,14.00
2022-08-26T20:41:46.318Z,13.77
2022-08-26T20:44:17.727Z,12.45
2022-08-26T20:46:48.085Z,13.07
2022-08-26T20:49:18.779Z,12.60
2022-08-26T20:51:51.774Z,15.27
2022-08-26T20:54:27.532Z,14.57
2022-08-26T20:57:01.521Z,14.38
2022-08-26T20:59:31.550Z,14.05
2022-08-26T21:02:01.476Z,14.45
2022-08-26T21:04:31.467Z,12.27
2022-08-26T21:07:01.403Z,14.43
2022-08-26T21:09:31.853Z,13.40
2022-08-26T21:12:04.689Z,13.82
2022-08-26T21:14:34.692Z,14.95
2022-08-26T21:17:04.575Z,13.65
2022-08-26T21:19:34.467Z,13.02
2022-08-26T21:22:05.043Z,13.05
2022-08-26T21:24:35.344Z,13.98
2022-08-26T21:27:08.099Z,12.73
2022-08-26T21:29:42.099Z,14.23
2022-08-26T21:32:12.436Z,13.48
2022-08-26T21:34:45.793Z,14.02
2022-08-26T21:37:16.898Z,15.07
2022-08-26T21:39:47.257Z,14.23
2022-08-26T21:42:19.735Z,14.75
2022-08-26T21:44:52.823Z,13.90
2022-08-26T21:47:24.494Z,14.65
2022-08-26T21:49:55.090Z,15.18
2022-08-26T21:52:25.033Z,14.95
2022-08-26T21:54:59.409Z,14.27
2022-08-26T21:57:32.032Z,14.85
2022-08-26T22:00:04.490Z,14.52
2022-08-26T22:02:36.834Z,18.15
2022-08-26T22:05:07.406Z,14.23
2022-08-26T22:07:37.340Z,15.45
2022-08-26T22:10:08.200Z,14.68
2022-08-26T22:12:40.779Z,14.88
2022-08-26T22:15:12.298Z,13.43
2022-08-26T22:17:42.508Z,14.60
2022-08-26T22:20:16.621Z,14.00
2022-08-26T22:22:46.787Z,13.98
2022-08-26T22:25:17.012Z,13.80
2022-08-26T22:27:49.457Z,14.10
2022-08-26T22:30:19.978Z,14.70
2022-08-26T22:32:50.024Z,15.05
2022-08-26T22:35:29.185Z,15.50
2022-08-26T22:37:59.858Z,15.90
2022-08-26T22:40:29.914Z,15.63
2022-08-26T22:43:02.503Z,15.18
2022-08-26T22:45:32.807Z,15.45
2022-08-26T22:48:05.224Z,15.15
2022-08-26T22:50:35.506Z,14.88
2022-08-26T22:53:05.693Z,16.58
2022-08-26T22:55:35.663Z,14.23
2022-08-26T22:58:09.467Z,13.95
2022-08-26T23:00:40.308Z,19.65
2022-08-26T23:03:10.562Z,14.45
2022-08-26T23:05:41.600Z,15.00
2022-08-26T23:08:12.125Z,13.25
2022-08-26T23:10:43.689Z,14.15
2022-08-26T23:13:17.472Z,14.52
2022-08-26T23:15:48.351Z,14.45
2022-08-26T23:18:18.812Z,14.20
2022-08-26T23:20:48.713Z,12.77
2022-08-26T23:23:18.626Z,13.32
2022-08-26T23:25:48.490Z,14.02
2022-08-26T23:28:21.157Z,13.32
2022-08-26T23:30:51.417Z,13.75
2022-08-26T23:33:21.363Z,13.95
2022-08-26T23:35:48.666Z,14.02
2022-08-26T23:38:19.593Z,14.60
2022-08-26T23:40:50.003Z,12.88
2022-08-26T23:43:22.659Z,13.95
2022-08-26T23:45:52.634Z,13.77
2022-08-26T23:48:22.595Z,12.98
2022-08-26T23:51:04.953Z,16.33
2022-08-26T23:53:34.913Z,13.63
2022-08-26T23:56:04.969Z,12.63
2022-08-26T23:58:37.441Z,14.10
